Time;durP1;ratioP1;P1;durP2;ratioP2;P2;SDS_P1;SDS_P2;PMS_P1;PMS_P2;Temp;Humidity;BMP_temperature;BMP_pressure;BME280_temperature;BME280_humidity;BME280_pressure;Samples;Min_cycle;Max_cycle;Signal;HPM_P1;HPM_P2
2022/09/03 00:01:57;;;;;;;2.03;1.30;;;17.20;94.30;;;;;;5073559;28;20547;-41
2022/09/03 00:04:51;;;;;;;1.40;1.20;;;17.20;94.50;;;;;;5073846;28;20174;-41
2022/09/03 00:07:21;;;;;;;2.47;1.07;;;17.10;94.60;;;;;;5023124;28;20203;-41
2022/09/03 00:09:52;;;;;;;2.47;1.17;;;17.10;94.70;;;;;;5073521;28;20199;-40
2022/09/03 00:12:31;;;;;;;2.90;1.17;;;17.10;94.60;;;;;;5073720;28;20191;-40
2022/09/03 00:15:00;;;;;;;3.27;1.70;;;17.00;94.90;;;;;;5073433;28;20690;-41
2022/09/03 00:17:37;;;;;;;3.90;1.60;;;17.00;95.00;;;;;;5073975;28;20187;-43
2022/09/03 00:20:21;;;;;;;2.80;1.53;;;17.00;95.00;;;;;;5073703;28;20170;-43
2022/09/03 00:22:53;;;;;;;5.97;1.50;;;17.00;95.30;;;;;;5073718;28;20235;-43
2022/09/03 00:25:25;;;;;;;5.03;1.73;;;17.00;95.40;;;;;;5073435;28;20210;-43
2022/09/03 00:27:55;;;;;;;2.20;1.40;;;16.90;95.50;;;;;;5074340;28;20172;-41
2022/09/03 00:30:23;;;;;;;6.73;1.77;;;16.90;95.60;;;;;;5073477;28;20644;-41
2022/09/03 00:33:09;;;;;;;5.23;1.47;;;16.80;95.50;;;;;;5073052;28;20246;-42
2022/09/03 00:35:43;;;;;;;4.50;1.77;;;16.90;95.70;;;;;;5073173;28;20168;-43
2022/09/03 00:38:09;;;;;;;4.37;1.47;;;16.80;95.80;;;;;;5073355;28;20172;-42
2022/09/03 00:41:12;;;;;;;5.80;1.63;;;16.80;95.70;;;;;;5073137;28;20229;-42
2022/09/03 00:43:48;;;;;;;2.47;1.30;;;16.70;96.00;;;;;;5073115;28;20176;-42
2022/09/03 00:46:30;;;;;;;6.10;1.50;;;16.70;95.90;;;;;;5073186;28;20616;-43
2022/09/03 00:49:28;;;;;;;4.40;1.80;;;16.70;96.40;;;;;;5073257;28;20305;-42
2022/09/03 00:52:18;;;;;;;2.90;1.40;;;16.60;95.90;;;;;;5073015;28;20762;-43
2022/09/03 00:55:20;;;;;;;3.20;1.60;;;16.60;96.00;;;;;;5059208;28;20203;-42
2022/09/03 00:58:28;;;;;;;5.53;1.50;;;16.50;96.20;;;;;;5077850;28;20151;-42
2022/09/03 01:00:54;;;;;;;4.47;1.73;;;16.60;96.20;;;;;;5077340;28;20166;-43
2022/09/03 01:03:39;;;;;;;3.03;1.50;;;16.50;96.30;;;;;;5077264;28;20180;-43
2022/09/03 01:06:20;;;;;;;4.00;1.40;;;16.40;96.40;;;;;;5077919;28;20270;-42
2022/09/03 01:09:08;;;;;;;2.67;1.30;;;16.40;96.50;;;;;;5077014;28;20164;-44
2022/09/03 01:11:48;;;;;;;2.23;1.53;;;16.30;96.70;;;;;;5076814;28;20203;-44
2022/09/03 01:14:27;;;;;;;5.07;1.50;;;16.30;97.00;;;;;;5077073;28;20186;-43
2022/09/03 01:17:22;;;;;;;3.03;1.47;;;16.20;97.00;;;;;;5076771;28;20160;-42
2022/09/03 01:20:13;;;;;;;1.93;1.07;;;16.20;97.50;;;;;;5077053;28;20160;-42
2022/09/03 01:23:05;;;;;;;3.33;1.40;;;16.10;97.70;;;;;;5077168;28;20203;-43
2022/09/03 01:25:43;;;;;;;1.77;1.30;;;16.10;98.20;;;;;;5076769;28;20192;-43
2022/09/03 01:28:39;;;;;;;3.13;1.63;;;16.00;98.30;;;;;;5076802;28;20171;-42
2022/09/03 01:31:25;;;;;;;4.53;1.90;;;15.90;98.30;;;;;;5076734;28;20222;-42
2022/09/03 01:34:07;;;;;;;4.97;1.57;;;15.90;98.60;;;;;;5076712;28;20167;-41
2022/09/03 01:36:51;;;;;;;2.50;1.40;;;15.80;98.70;;;;;;5076717;28;20164;-43
2022/09/03 01:39:34;;;;;;;4.17;2.00;;;15.70;98.80;;;;;;5076588;28;20170;-44
2022/09/03 01:42:15;;;;;;;2.27;1.53;;;15.70;99.20;;;;;;5076700;28;20286;-43
2022/09/03 01:45:06;;;;;;;7.30;1.77;;;15.60;99.30;;;;;;5077052;28;20556;-43
2022/09/03 01:48:00;;;;;;;2.20;1.50;;;15.50;99.50;;;;;;5076454;28;20175;-42
2022/09/03 01:50:49;;;;;;;1.93;1.70;;;15.50;99.90;;;;;;5076373;28;20203;-43
2022/09/03 01:53:24;;;;;;;5.73;1.73;;;15.40;99.90;;;;;;5076334;28;20164;-42
2022/09/03 01:56:24;;;;;;;3.77;1.40;;;15.40;99.90;;;;;;5076487;28;20239;-44
2022/09/03 01:59:01;;;;;;;2.67;1.60;;;15.40;99.90;;;;;;5058124;28;20164;-43
2022/09/03 02:01:35;;;;;;;3.60;1.33;;;15.30;99.90;;;;;;5076311;28;20214;-42
2022/09/03 02:04:12;;;;;;;5.53;1.80;;;15.20;99.90;;;;;;5075478;28;20175;-44
2022/09/03 02:06:38;;;;;;;1.77;1.17;;;15.20;99.90;;;;;;5076153;28;20359;-44
2022/09/03 02:09:04;;;;;;;2.70;1.50;;;15.20;99.90;;;;;;5075810;28;20744;-42
2022/09/03 02:11:30;;;;;;;1.70;1.13;;;15.10;99.90;;;;;;5075990;28;20219;-44
2022/09/03 02:13:58;;;;;;;2.97;1.33;;;15.10;99.90;;;;;;5057811;28;20172;-43
2022/09/03 02:16:30;;;;;;;5.80;1.30;;;15.00;99.90;;;;;;5075898;28;20266;-43
2022/09/03 02:19:00;;;;;;;3.30;1.27;;;15.00;99.90;;;;;;5075766;28;20162;-42
2022/09/03 02:21:31;;;;;;;3.23;1.20;;;15.00;99.90;;;;;;5075846;28;20210;-43
2022/09/03 02:23:57;;;;;;;2.03;0.97;;;14.90;99.90;;;;;;5075599;28;20160;-44
2022/09/03 02:26:23;;;;;;;3.63;1.37;;;14.90;99.90;;;;;;5075419;28;20213;-43
2022/09/03 02:28:50;;;;;;;1.63;1.10;;;14.80;99.90;;;;;;5075523;28;20206;-43
2022/09/03 02:31:16;;;;;;;2.17;1.20;;;14.80;99.90;;;;;;5075492;28;20215;-41
2022/09/03 02:33:45;;;;;;;2.93;1.00;;;14.70;99.90;;;;;;5075393;28;20176;-43
2022/09/03 02:36:13;;;;;;;1.63;1.10;;;14.80;99.90;;;;;;5075347;28;20178;-43
2022/09/03 02:38:41;;;;;;;3.23;1.47;;;14.70;99.90;;;;;;5075199;28;20218;-44
2022/09/03 02:41:07;;;;;;;2.03;1.20;;;14.70;99.90;;;;;;5075490;28;20612;-43
2022/09/03 02:43:56;;;;;;;2.63;1.20;;;14.80;99.90;;;;;;5075611;28;20171;-43
2022/09/03 02:46:26;;;;;;;2.33;1.20;;;14.80;99.90;;;;;;5075451;28;20206;-44
2022/09/03 02:48:53;;;;;;;2.20;1.20;;;14.70;99.90;;;;;;5075987;28;20160;-42
2022/09/03 02:51:19;;;;;;;1.40;1.03;;;14.70;99.90;;;;;;5075708;28;20207;-44
2022/09/03 02:53:44;;;;;;;1.40;1.20;;;14.70;99.90;;;;;;5075070;28;20664;-43
2022/09/03 02:56:11;;;;;;;3.47;1.10;;;14.70;99.90;;;;;;5074982;28;20203;-42
2022/09/03 02:58:37;;;;;;;1.13;1.03;;;14.70;99.90;;;;;;5074888;28;20640;-43
2022/09/03 03:01:03;;;;;;;5.97;1.13;;;14.70;99.90;;;;;;5074846;28;20240;-44
2022/09/03 03:03:29;;;;;;;3.43;1.40;;;14.70;99.90;;;;;;5074921;28;20179;-43
2022/09/03 03:05:57;;;;;;;2.40;1.13;;;14.60;99.90;;;;;;5074959;28;20205;-43
2022/09/03 03:08:26;;;;;;;3.37;1.10;;;14.60;99.90;;;;;;5075189;28;20188;-42
2022/09/03 03:10:52;;;;;;;1.93;1.20;;;14.60;99.90;;;;;;5075380;28;20298;-43
2022/09/03 03:13:18;;;;;;;2.90;1.30;;;14.50;99.90;;;;;;5074642;28;20180;-42
2022/09/03 03:15:45;;;;;;;4.87;1.10;;;14.60;99.90;;;;;;5074397;28;20202;-41
2022/09/03 03:18:10;;;;;;;1.80;1.00;;;14.60;99.90;;;;;;5077325;28;20163;-43
2022/09/03 03:20:37;;;;;;;3.37;1.10;;;14.60;99.90;;;;;;5077351;28;20176;-44
2022/09/03 03:23:04;;;;;;;6.50;1.30;;;14.60;99.90;;;;;;5077386;28;20230;-43
2022/09/03 03:25:39;;;;;;;1.10;1.00;;;14.50;99.90;;;;;;5074575;28;20710;-44
2022/09/03 03:28:05;;;;;;;1.77;1.00;;;14.60;99.90;;;;;;5075198;28;20164;-44
2022/09/03 03:30:32;;;;;;;4.00;1.37;;;14.60;99.90;;;;;;5074291;28;20207;-43
2022/09/03 03:32:58;;;;;;;4.60;1.33;;;14.50;99.90;;;;;;5074230;28;20191;-42
2022/09/03 03:35:24;;;;;;;1.63;1.03;;;14.50;99.90;;;;;;5075313;28;20164;-42
2022/09/03 03:37:50;;;;;;;2.10;1.10;;;14.60;99.90;;;;;;5056144;28;20266;-41
2022/09/03 03:40:15;;;;;;;4.03;1.23;;;14.60;99.90;;;;;;5074032;28;20262;-40
2022/09/03 03:42:41;;;;;;;1.60;1.00;;;14.60;99.90;;;;;;5074230;28;20203;-40
2022/09/03 03:45:08;;;;;;;4.57;1.30;;;14.60;99.90;;;;;;5073928;28;20180;-41
2022/09/03 03:47:35;;;;;;;1.60;1.20;;;14.70;99.90;;;;;;5073876;28;20186;-40
2022/09/03 03:50:01;;;;;;;1.37;1.00;;;14.70;99.90;;;;;;5074245;28;20191;-41
2022/09/03 03:52:27;;;;;;;2.23;1.00;;;14.80;99.90;;;;;;5074133;28;20196;-40
2022/09/03 03:54:53;;;;;;;2.17;1.10;;;14.80;99.90;;;;;;5074049;28;20258;-40
2022/09/03 03:57:20;;;;;;;3.90;1.33;;;14.80;99.90;;;;;;5074220;28;20258;-38
2022/09/03 03:59:46;;;;;;;4.23;1.10;;;14.90;99.90;;;;;;5073873;28;20187;-41
2022/09/03 04:02:13;;;;;;;1.70;1.20;;;14.80;99.90;;;;;;5073773;28;20249;-39
2022/09/03 04:04:38;;;;;;;1.17;0.90;;;14.90;99.90;;;;;;5074469;28;20187;-41
2022/09/03 04:07:04;;;;;;;2.97;1.17;;;14.90;99.90;;;;;;5073702;28;20253;-40
2022/09/03 04:09:30;;;;;;;1.60;1.00;;;14.90;99.90;;;;;;5073465;28;20209;-40
2022/09/03 04:11:58;;;;;;;2.27;1.20;;;14.90;99.90;;;;;;5073436;28;20191;-39
2022/09/03 04:14:24;;;;;;;4.07;1.30;;;14.90;99.90;;;;;;5073443;28;20176;-41
2022/09/03 04:16:50;;;;;;;2.13;1.00;;;14.90;99.90;;;;;;5073659;28;20229;-40
2022/09/03 04:19:16;;;;;;;2.43;0.73;;;15.00;99.90;;;;;;5073748;28;20183;-39
2022/09/03 04:21:42;;;;;;;2.00;1.00;;;15.00;99.90;;;;;;5073434;28;20200;-38
2022/09/03 04:24:08;;;;;;;2.27;1.20;;;15.10;99.90;;;;;;5073380;28;20217;-40
2022/09/03 04:26:35;;;;;;;5.03;1.20;;;15.10;99.90;;;;;;5073102;28;20226;-40
2022/09/03 04:29:06;;;;;;;1.63;1.27;;;15.10;99.90;;;;;;5072806;28;20206;-38
2022/09/03 04:31:34;;;;;;;1.27;1.10;;;15.10;99.90;;;;;;5073263;28;20218;-40
2022/09/03 04:34:00;;;;;;;1.20;1.00;;;15.10;99.90;;;;;;5073317;28;20186;-40
2022/09/03 04:36:27;;;;;;;2.17;1.30;;;15.20;99.90;;;;;;5073299;28;20167;-39
2022/09/03 04:38:55;;;;;;;1.47;1.20;;;15.10;99.90;;;;;;5073275;28;20175;-39
2022/09/03 04:41:25;;;;;;;2.03;1.30;;;15.10;99.90;;;;;;5073428;28;20195;-39
2022/09/03 04:43:55;;;;;;;2.60;1.40;;;15.10;99.90;;;;;;5073239;28;20187;-39
2022/09/03 04:46:24;;;;;;;1.43;0.97;;;15.20;99.90;;;;;;5073396;28;20190;-40
2022/09/03 04:48:53;;;;;;;2.00;1.10;;;15.20;99.90;;;;;;5073403;28;20681;-40
2022/09/03 04:51:21;;;;;;;1.03;0.93;;;15.20;99.90;;;;;;5073039;28;20365;-40
2022/09/03 04:53:52;;;;;;;1.23;0.90;;;15.20;99.90;;;;;;5073180;28;20172;-42
2022/09/03 04:56:20;;;;;;;1.37;1.10;;;15.30;99.90;;;;;;5073080;28;20178;-41
2022/09/03 04:58:47;;;;;;;1.97;1.00;;;15.30;99.90;;;;;;5073141;28;20176;-41
2022/09/03 05:01:18;;;;;;;3.37;1.10;;;15.30;99.90;;;;;;5073206;28;20206;-40
2022/09/03 05:03:45;;;;;;;1.20;0.90;;;15.30;99.90;;;;;;5073278;28;20187;-42
2022/09/03 05:06:11;;;;;;;3.07;1.20;;;15.30;99.90;;;;;;5073612;28;20208;-41
2022/09/03 05:08:36;;;;;;;3.20;1.23;;;15.30;99.90;;;;;;5073939;28;20187;-40
2022/09/03 05:11:03;;;;;;;1.97;1.03;;;15.30;99.90;;;;;;5073478;28;20230;-40
2022/09/03 05:13:29;;;;;;;1.93;1.17;;;15.30;99.90;;;;;;5073168;28;20188;-42
2022/09/03 05:16:03;;;;;;;4.23;1.00;;;15.30;99.90;;;;;;5073118;28;20199;-42
2022/09/03 05:18:29;;;;;;;0.70;0.70;;;15.30;99.90;;;;;;5072830;28;20180;-41
2022/09/03 05:21:00;;;;;;;2.47;1.37;;;15.30;99.90;;;;;;5073103;28;20182;-40
2022/09/03 05:23:26;;;;;;;1.33;1.10;;;15.30;99.90;;;;;;5072864;28;20183;-38
2022/09/03 05:26:01;;;;;;;3.33;1.20;;;15.20;99.90;;;;;;5073034;28;20598;-39
2022/09/03 05:28:29;;;;;;;1.53;1.00;;;15.20;99.90;;;;;;5072729;28;20171;-38
2022/09/03 05:31:02;;;;;;;1.60;1.00;;;15.20;99.90;;;;;;5072562;28;20239;-39
2022/09/03 05:33:28;;;;;;;1.80;1.00;;;15.10;99.90;;;;;;5074131;28;20160;-44
2022/09/03 05:36:04;;;;;;;2.90;1.33;;;15.10;99.90;;;;;;5077025;28;20178;-45
2022/09/03 05:38:30;;;;;;;2.47;0.80;;;15.10;99.90;;;;;;5074705;28;20318;-38
2022/09/03 05:41:00;;;;;;;2.93;0.93;;;15.10;99.90;;;;;;5076240;28;20275;-40
2022/09/03 05:43:26;;;;;;;2.23;1.10;;;15.10;99.90;;;;;;5076259;28;20264;-42
2022/09/03 05:45:57;;;;;;;2.20;1.17;;;15.10;99.90;;;;;;5076299;28;20628;-39
2022/09/03 05:48:22;;;;;;;4.83;0.97;;;15.10;99.90;;;;;;5076439;28;20178;-38
2022/09/03 05:50:48;;;;;;;2.10;1.30;;;15.10;99.90;;;;;;5076248;28;20222;-40
2022/09/03 05:53:14;;;;;;;2.60;0.90;;;15.10;99.90;;;;;;5076263;28;20176;-39
2022/09/03 05:55:39;;;;;;;3.03;0.90;;;15.10;99.90;;;;;;5076077;28;20221;-40
2022/09/03 05:58:06;;;;;;;3.27;1.10;;;15.20;99.90;;;;;;5076521;28;20271;-41
2022/09/03 06:00:31;;;;;;;0.77;0.73;;;15.20;99.90;;;;;;5075960;28;20180;-40
2022/09/03 06:02:57;;;;;;;1.10;0.70;;;15.20;99.90;;;;;;5076108;28;20195;-40
2022/09/03 06:05:23;;;;;;;1.33;0.80;;;15.30;99.90;;;;;;5076088;28;20254;-41
2022/09/03 06:07:48;;;;;;;2.83;1.20;;;15.30;99.90;;;;;;5075756;28;20188;-40
2022/09/03 06:10:16;;;;;;;2.47;0.87;;;15.40;99.90;;;;;;5076172;28;20260;-40
2022/09/03 06:12:48;;;;;;;5.17;1.30;;;15.40;99.90;;;;;;5075853;28;20200;-41
2022/09/03 06:15:15;;;;;;;3.07;1.17;;;15.50;99.90;;;;;;5075994;28;20635;-42
2022/09/03 06:17:41;;;;;;;3.33;1.17;;;15.60;99.90;;;;;;5075904;28;20184;-40
2022/09/03 06:20:07;;;;;;;2.07;1.37;;;15.60;99.90;;;;;;5057731;28;20302;-40
2022/09/03 06:22:32;;;;;;;1.43;1.00;;;15.60;99.90;;;;;;5075686;28;20203;-39
2022/09/03 06:24:58;;;;;;;3.30;1.30;;;15.70;99.90;;;;;;5057483;28;20207;-40
2022/09/03 06:27:24;;;;;;;3.67;1.10;;;15.70;99.90;;;;;;5076031;28;20250;-40
2022/09/03 06:29:49;;;;;;;2.70;1.20;;;15.80;99.90;;;;;;5075268;28;20203;-39
2022/09/03 06:32:15;;;;;;;1.63;1.10;;;15.90;99.90;;;;;;5075436;28;20272;-40
2022/09/03 06:34:41;;;;;;;1.53;1.13;;;16.00;99.90;;;;;;5075727;28;20255;-41
2022/09/03 06:37:06;;;;;;;1.53;1.03;;;16.10;99.90;;;;;;5075410;28;20267;-41
2022/09/03 06:39:32;;;;;;;3.93;1.20;;;16.30;99.90;;;;;;5075862;28;20179;-41
2022/09/03 06:41:57;;;;;;;2.83;1.37;;;16.30;99.90;;;;;;5075181;28;20210;-41
2022/09/03 06:44:23;;;;;;;3.60;1.30;;;16.50;99.90;;;;;;5075893;28;20167;-41
2022/09/03 06:46:49;;;;;;;3.03;1.10;;;16.60;99.90;;;;;;5075174;28;20187;-41
2022/09/03 06:49:14;;;;;;;1.50;1.10;;;16.80;99.90;;;;;;5075420;28;20200;-41
2022/09/03 06:51:42;;;;;;;3.13;1.30;;;16.80;99.90;;;;;;5074672;28;20191;-41
2022/09/03 06:54:10;;;;;;;2.47;1.27;;;17.00;99.90;;;;;;5075051;28;20164;-41
2022/09/03 06:56:38;;;;;;;4.60;1.40;;;17.10;99.90;;;;;;5075137;28;20172;-41
2022/09/03 06:59:11;;;;;;;2.00;1.17;;;17.20;99.90;;;;;;5075147;28;20172;-40
2022/09/03 07:01:39;;;;;;;1.97;1.37;;;17.30;99.90;;;;;;5080312;28;20199;-41
2022/09/03 07:04:06;;;;;;;1.83;1.30;;;17.40;99.90;;;;;;5080110;28;20266;-40
2022/09/03 07:06:37;;;;;;;8.13;1.53;;;17.50;99.90;;;;;;5079076;28;20182;-39
2022/09/03 07:09:07;;;;;;;2.20;1.30;;;17.60;99.90;;;;;;5075283;28;20625;-40
2022/09/03 07:11:34;;;;;;;1.93;1.20;;;17.80;99.90;;;;;;5074908;28;20207;-40
2022/09/03 07:14:02;;;;;;;1.53;1.13;;;17.90;99.90;;;;;;5074717;28;20175;-40
2022/09/03 07:16:33;;;;;;;1.80;1.10;;;18.00;99.90;;;;;;5074484;28;20581;-40
2022/09/03 07:18:59;;;;;;;1.50;1.30;;;18.20;99.90;;;;;;5074548;28;20168;-41
2022/09/03 07:21:28;;;;;;;1.80;1.30;;;18.40;99.90;;;;;;5074501;28;20543;-39
2022/09/03 07:23:55;;;;;;;2.80;1.27;;;18.50;99.90;;;;;;5074572;28;20710;-39
2022/09/03 07:26:29;;;;;;;5.20;1.20;;;18.70;99.90;;;;;;5076597;28;20570;-40
2022/09/03 07:28:55;;;;;;;2.23;1.47;;;18.70;99.90;;;;;;5074796;28;20180;-41
2022/09/03 07:31:27;;;;;;;1.80;1.30;;;18.70;99.90;;;;;;5074366;28;20588;-40
2022/09/03 07:33:57;;;;;;;3.07;1.20;;;18.70;99.90;;;;;;5075683;28;20159;-39
2022/09/03 07:36:25;;;;;;;4.90;1.10;;;18.70;99.90;;;;;;5075753;28;20164;-41
2022/09/03 07:38:53;;;;;;;2.60;1.50;;;18.70;99.90;;;;;;5074217;28;20538;-39
2022/09/03 07:41:20;;;;;;;1.53;1.10;;;18.80;99.90;;;;;;5074440;28;20253;-41
2022/09/03 07:43:46;;;;;;;1.37;1.00;;;19.00;99.90;;;;;;5074368;28;20270;-40
2022/09/03 07:46:23;;;;;;;4.83;1.20;;;19.10;99.90;;;;;;5074151;28;20244;-41
2022/09/03 07:48:53;;;;;;;1.47;0.93;;;19.30;99.90;;;;;;5074171;28;20242;-39
2022/09/03 07:51:21;;;;;;;6.20;1.13;;;19.50;99.90;;;;;;5073988;28;20207;-40
2022/09/03 07:53:48;;;;;;;5.63;1.00;;;19.60;99.90;;;;;;5073770;28;20216;-40
2022/09/03 07:56:14;;;;;;;1.17;0.87;;;19.60;99.90;;;;;;5073993;28;20214;-41
2022/09/03 07:58:40;;;;;;;3.63;1.10;;;19.70;99.90;;;;;;5073991;28;20176;-40
2022/09/03 08:01:11;;;;;;;2.07;1.00;;;19.80;99.90;;;;;;5073580;28;20190;-38
2022/09/03 08:03:38;;;;;;;3.77;1.00;;;19.80;99.90;;;;;;5075026;28;20194;-37
2022/09/03 08:06:06;;;;;;;1.73;1.10;;;19.90;99.90;;;;;;5073650;28;20262;-39
2022/09/03 08:08:33;;;;;;;3.43;1.10;;;20.00;99.90;;;;;;5073669;28;20606;-41
2022/09/03 08:11:09;;;;;;;1.23;1.00;;;20.10;99.90;;;;;;5073486;28;20214;-40
2022/09/03 08:13:37;;;;;;;3.37;1.57;;;20.20;99.90;;;;;;5073981;28;20174;-41
2022/09/03 08:16:04;;;;;;;3.73;0.90;;;20.20;99.90;;;;;;5074413;28;20279;-39
2022/09/03 08:18:34;;;;;;;1.53;0.83;;;20.30;99.90;;;;;;5074621;28;20239;-39
2022/09/03 08:20:59;;;;;;;1.77;0.90;;;20.30;99.90;;;;;;5074560;28;20215;-40
2022/09/03 08:23:25;;;;;;;0.70;0.70;;;20.50;99.90;;;;;;5074298;28;20218;-40
2022/09/03 08:26:00;;;;;;;0.93;0.83;;;20.50;99.90;;;;;;5073850;28;20191;-39
2022/09/03 08:28:26;;;;;;;2.10;1.03;;;20.50;99.90;;;;;;5073605;28;20240;-42
2022/09/03 08:30:52;;;;;;;4.57;1.00;;;20.60;99.90;;;;;;5073141;28;20225;-39
2022/09/03 08:33:35;;;;;;;2.50;1.00;;;20.60;99.90;;;;;;5073431;28;20204;-40
2022/09/03 08:36:03;;;;;;;3.60;1.37;;;20.80;99.90;;;;;;5073591;28;20533;-39
2022/09/03 08:38:32;;;;;;;7.87;1.57;;;20.90;99.90;;;;;;5073382;28;20658;-38
2022/09/03 08:41:13;;;;;;;3.17;0.93;;;20.90;99.90;;;;;;5073226;28;20232;-39
2022/09/03 08:44:06;;;;;;;5.13;1.30;;;21.00;99.90;;;;;;5073210;28;20339;-39
2022/09/03 08:46:52;;;;;;;1.63;1.00;;;21.10;99.90;;;;;;5073547;28;20172;-39
2022/09/03 08:49:28;;;;;;;5.33;1.20;;;21.30;99.90;;;;;;5073417;28;20159;-41
2022/09/03 08:51:56;;;;;;;2.90;1.00;;;21.40;99.60;;;;;;5073031;28;20541;-41
2022/09/03 08:54:28;;;;;;;2.90;0.90;;;21.40;99.90;;;;;;5073295;28;20164;-41
2022/09/03 08:56:58;;;;;;;8.30;1.10;;;21.60;99.80;;;;;;5073348;28;20160;-40
2022/09/03 08:59:24;;;;;;;1.10;0.80;;;21.70;99.90;;;;;;5073216;28;20193;-40
2022/09/03 09:02:00;;;;;;;2.53;0.97;;;21.90;99.90;;;;;;5073198;28;20225;-40
2022/09/03 09:04:44;;;;;;;3.93;1.40;;;22.00;99.40;;;;;;5073106;28;20174;-41
2022/09/03 09:07:29;;;;;;;2.07;1.30;;;22.20;99.80;;;;;;5073801;28;20171;-39
2022/09/03 09:10:22;;;;;;;1.87;1.60;;;22.20;99.50;;;;;;5073453;28;20249;-41
2022/09/03 09:13:17;;;;;;;6.07;1.37;;;22.20;99.50;;;;;;5073571;28;20547;-40
2022/09/03 09:16:09;;;;;;;5.23;1.10;;;22.30;99.70;;;;;;5077335;28;20507;-38
2022/09/03 09:18:55;;;;;;;1.83;1.20;;;22.40;99.90;;;;;;5077422;28;20164;-40
2022/09/03 09:21:40;;;;;;;2.80;1.37;;;22.50;99.60;;;;;;5078327;28;20230;-39
2022/09/03 09:24:13;;;;;;;2.83;1.03;;;22.60;99.90;;;;;;5076976;28;20527;-38
2022/09/03 09:26:40;;;;;;;6.23;1.13;;;22.70;99.90;;;;;;5076662;28;20286;-38
2022/09/03 09:29:09;;;;;;;1.70;1.20;;;22.80;99.90;;;;;;5077013;28;20644;-40
2022/09/03 09:31:36;;;;;;;1.90;1.27;;;22.90;99.80;;;;;;5077019;28;20214;-41
2022/09/03 09:34:07;;;;;;;3.77;1.33;;;22.90;99.90;;;;;;5076579;28;20175;-40
2022/09/03 09:36:54;;;;;;;3.40;1.27;;;23.00;99.90;;;;;;5076493;28;20171;-40
2022/09/03 09:39:21;;;;;;;3.60;1.17;;;23.10;99.90;;;;;;5077155;28;20156;-40
2022/09/03 09:42:10;;;;;;;3.33;1.00;;;23.30;99.90;;;;;;5076653;28;20203;-38
2022/09/03 09:44:41;;;;;;;1.60;0.97;;;23.30;99.90;;;;;;5058646;28;20167;-41
2022/09/03 09:47:12;;;;;;;5.27;1.40;;;23.50;99.90;;;;;;5076171;28;20285;-39
2022/09/03 09:49:57;;;;;;;4.03;1.30;;;23.60;99.90;;;;;;5076364;28;20196;-40
2022/09/03 09:52:30;;;;;;;3.10;1.10;;;23.70;99.90;;;;;;5076251;28;20337;-41
2022/09/03 09:55:13;;;;;;;6.43;1.30;;;23.80;99.90;;;;;;5076066;28;20638;-39
2022/09/03 09:57:39;;;;;;;2.47;1.30;;;23.90;99.90;;;;;;5076420;28;20172;-40
2022/09/03 10:00:09;;;;;;;6.80;1.40;;;24.00;99.90;;;;;;5076316;28;20176;-39
2022/09/03 10:02:36;;;;;;;2.37;1.33;;;24.10;99.90;;;;;;5075985;28;20702;-39
2022/09/03 10:05:31;;;;;;;3.13;1.40;;;24.20;99.90;;;;;;5075958;28;20711;-40
2022/09/03 10:08:03;;;;;;;3.37;1.40;;;24.10;99.90;;;;;;5058121;28;20183;-40
2022/09/03 10:10:33;;;;;;;3.40;1.50;;;24.10;99.90;;;;;;5077776;28;20207;-39
2022/09/03 10:13:11;;;;;;;6.03;1.23;;;24.10;99.90;;;;;;5076151;28;20210;-39
2022/09/03 10:16:02;;;;;;;8.30;1.87;;;23.90;99.90;;;;;;5076118;28;20167;-39
2022/09/03 10:18:59;;;;;;;4.13;1.20;;;23.90;99.90;;;;;;5075959;28;20175;-39
2022/09/03 10:21:49;;;;;;;3.67;1.10;;;23.90;99.90;;;;;;5075761;28;20234;-40
2022/09/03 10:24:42;;;;;;;2.60;1.30;;;23.90;99.90;;;;;;5075831;28;20160;-40
2022/09/03 10:27:11;;;;;;;3.57;1.53;;;23.90;99.90;;;;;;5057164;28;20193;-41
2022/09/03 10:29:39;;;;;;;1.60;1.07;;;23.90;99.90;;;;;;5075696;28;20199;-40
2022/09/03 10:32:22;;;;;;;2.77;1.30;;;24.00;99.90;;;;;;5075629;28;20208;-39
2022/09/03 10:35:19;;;;;;;2.20;1.20;;;24.00;99.90;;;;;;5076009;28;20155;-41
2022/09/03 10:38:24;;;;;;;2.30;1.60;;;23.90;99.90;;;;;;5075315;28;20210;-39
2022/09/03 10:41:01;;;;;;;3.77;1.43;;;24.00;99.90;;;;;;5074691;28;20190;-40
2022/09/03 10:43:45;;;;;;;3.50;1.50;;;24.10;99.90;;;;;;5075602;28;20217;-40
2022/09/03 10:46:15;;;;;;;4.07;1.30;;;24.10;99.90;;;;;;5075284;28;20170;-41
2022/09/03 10:49:02;;;;;;;2.67;1.20;;;24.20;99.90;;;;;;5075206;28;20188;-42
2022/09/03 10:51:35;;;;;;;2.93;1.10;;;24.40;99.90;;;;;;5074905;28;20219;-40
2022/09/03 10:54:19;;;;;;;6.20;1.50;;;24.50;99.90;;;;;;5075137;28;20257;-41
2022/09/03 10:57:23;;;;;;;4.10;1.47;;;24.60;99.90;;;;;;5075106;28;20217;-40
2022/09/03 11:00:14;;;;;;;3.13;1.20;;;24.80;99.90;;;;;;5074974;28;20176;-38
2022/09/03 11:03:15;;;;;;;2.60;1.40;;;25.20;99.90;;;;;;5074996;28;20545;-42
2022/09/03 11:05:57;;;;;;;5.03;1.60;;;25.30;99.90;;;;;;5074824;28;20178;-39
2022/09/03 11:08:27;;;;;;;4.00;1.40;;;25.60;99.90;;;;;;5075157;28;20174;-41
2022/09/03 11:11:15;;;;;;;2.87;1.40;;;25.60;99.40;;;;;;5074619;28;20245;-41
2022/09/03 11:13:49;;;;;;;1.60;1.30;;;25.70;99.90;;;;;;5075167;28;20186;-41
2022/09/03 11:16:19;;;;;;;7.70;1.87;;;25.80;99.80;;;;;;5074660;28;20254;-40
2022/09/03 11:18:52;;;;;;;1.77;1.50;;;25.90;99.80;;;;;;5074498;28;20217;-38
2022/09/03 11:21:24;;;;;;;1.63;1.53;;;26.00;99.60;;;;;;5074903;28;20253;-40
2022/09/03 11:24:01;;;;;;;3.90;1.60;;;26.10;99.70;;;;;;5074729;28;20164;-40
2022/09/03 11:26:27;;;;;;;3.00;1.40;;;26.40;99.90;;;;;;5074427;28;20190;-39
2022/09/03 11:29:16;;;;;;;1.30;1.20;;;26.50;99.70;;;;;;5074372;28;20176;-37
2022/09/03 11:32:00;;;;;;;1.53;1.30;;;26.70;98.50;;;;;;5074544;28;20233;-38
2022/09/03 11:34:32;;;;;;;2.50;1.30;;;26.70;99.00;;;;;;5074710;28;20210;-40
2022/09/03 11:37:25;;;;;;;2.50;1.10;;;26.70;98.30;;;;;;5074296;28;20153;-39
2022/09/03 11:40:16;;;;;;;2.27;1.10;;;26.80;98.30;;;;;;5056264;28;20183;-41
2022/09/03 11:42:43;;;;;;;2.03;1.30;;;26.90;98.70;;;;;;5073910;28;20203;-39
2022/09/03 11:45:23;;;;;;;1.63;1.27;;;26.90;97.90;;;;;;5056155;28;20179;-40
2022/09/03 11:47:50;;;;;;;1.97;1.30;;;26.90;97.30;;;;;;5074084;28;20163;-41
2022/09/03 11:50:24;;;;;;;2.23;1.40;;;26.90;98.40;;;;;;5074136;28;20611;-41
2022/09/03 11:52:52;;;;;;;4.97;1.40;;;26.90;98.00;;;;;;5074075;28;20214;-39
2022/09/03 11:55:32;;;;;;;5.40;1.50;;;26.90;97.40;;;;;;5074152;28;20582;-39
2022/09/03 11:58:10;;;;;;;2.03;1.53;;;26.80;96.70;;;;;;5055960;28;20171;-40
2022/09/03 12:00:38;;;;;;;2.70;1.30;;;26.60;97.60;;;;;;5073969;28;20241;-40
2022/09/03 12:03:04;;;;;;;2.27;1.73;;;26.60;98.20;;;;;;5073978;28;20183;-40
2022/09/03 12:05:46;;;;;;;3.15;1.67;;;26.60;98.20;;;;;;5073610;28;20179;-41
2022/09/03 12:08:18;;;;;;;1.85;1.50;;;26.60;96.90;;;;;;5073866;28;20216;-39
2022/09/03 12:11:22;;;;;;;3.80;1.80;;;26.60;98.20;;;;;;5074124;28;20191;-39
2022/09/03 12:14:00;;;;;;;1.73;1.60;;;26.70;98.20;;;;;;5074461;28;20162;-44
2022/09/03 12:16:47;;;;;;;3.67;1.70;;;26.90;98.50;;;;;;5073720;28;20222;-44
2022/09/03 12:19:31;;;;;;;2.27;1.50;;;27.00;99.40;;;;;;5073464;28;20175;-44
2022/09/03 12:21:56;;;;;;;4.15;1.63;;;27.10;98.60;;;;;;5073524;28;20199;-43
2022/09/03 12:24:30;;;;;;;1.65;1.20;;;27.20;99.10;;;;;;5073896;28;20172;-45
2022/09/03 12:26:57;;;;;;;2.05;1.67;;;27.30;98.60;;;;;;5074211;28;20183;-44
2022/09/03 12:29:26;;;;;;;2.10;1.33;;;27.40;99.10;;;;;;5073537;28;20217;-44
2022/09/03 12:31:53;;;;;;;2.13;1.65;;;27.40;97.70;;;;;;5073531;28;20282;-42
2022/09/03 12:34:20;;;;;;;1.52;1.35;;;27.40;98.10;;;;;;5073590;28;20180;-43
2022/09/03 12:36:51;;;;;;;1.50;1.40;;;27.50;98.60;;;;;;5055292;28;20197;-44
2022/09/03 12:39:24;;;;;;;2.63;1.30;;;27.60;99.20;;;;;;5073555;28;20175;-42
2022/09/03 12:42:06;;;;;;;1.98;1.77;;;27.60;98.00;;;;;;5073112;28;20199;-44
2022/09/03 12:44:40;;;;;;;3.90;1.80;;;27.70;97.70;;;;;;5073497;28;20167;-44
2022/09/03 12:47:13;;;;;;;2.15;1.42;;;27.60;96.50;;;;;;5073401;28;20216;-43
2022/09/03 12:49:41;;;;;;;1.55;1.33;;;27.40;97.10;;;;;;5078386;28;20225;-41
2022/09/03 12:52:52;;;;;;;1.85;1.33;;;27.30;97.30;;;;;;5080081;28;20199;-45
2022/09/03 12:55:43;;;;;;;3.38;1.40;;;27.30;97.60;;;;;;4979010;28;20286;-44
2022/09/03 12:58:20;;;;;;;3.17;1.52;;;27.30;98.00;;;;;;5076939;28;20191;-45
2022/09/03 13:01:03;;;;;;;2.80;1.40;;;27.40;98.70;;;;;;5079907;28;20167;-43
2022/09/03 13:03:56;;;;;;;4.07;1.58;;;27.50;97.00;;;;;;5080068;28;20175;-45
2022/09/03 13:06:48;;;;;;;3.05;1.50;;;27.60;98.30;;;;;;5061723;28;20236;-44
2022/09/03 13:09:19;;;;;;;1.75;1.50;;;27.70;97.60;;;;;;5079588;28;20674;-45
2022/09/03 13:11:45;;;;;;;1.40;1.27;;;28.00;98.40;;;;;;5079899;28;20230;-43
2022/09/03 13:14:12;;;;;;;2.33;1.35;;;28.10;98.00;;;;;;5080234;28;20188;-43
2022/09/03 13:16:44;;;;;;;2.08;1.50;;;28.30;98.90;;;;;;5062965;28;20221;-45
2022/09/03 13:19:44;;;;;;;2.95;1.52;;;28.60;99.10;;;;;;5079859;28;20183;-43
2022/09/03 13:22:32;;;;;;;1.52;1.33;;;28.60;96.60;;;;;;5062050;28;20217;-42